sensor_id;sensor_type;location;lat;lon;timestamp;P1;durP1;ratioP1;P2;durP2;ratioP2
48777;SDS011;34578;0.000;0.000;2024-02-28T00:02:09;4.20;;;3.17;;
48777;SDS011;34578;0.000;0.000;2024-02-28T00:07:09;4.63;;;2.60;;
48777;SDS011;34578;0.000;0.000;2024-02-28T00:12:10;3.87;;;3.20;;
48777;SDS011;34578;0.000;0.000;2024-02-28T00:17:11;4.50;;;2.70;;
48777;SDS011;34578;0.000;0.000;2024-02-28T00:22:12;5.35;;;3.30;;
48777;SDS011;34578;0.000;0.000;2024-02-28T00:27:12;4.00;;;2.73;;
48777;SDS011;34578;0.000;0.000;2024-02-28T00:32:13;3.65;;;3.17;;
48777;SDS011;34578;0.000;0.000;2024-02-28T00:37:13;4.07;;;3.10;;
48777;SDS011;34578;0.000;0.000;2024-02-28T00:42:14;3.87;;;3.20;;
48777;SDS011;34578;0.000;0.000;2024-02-28T00:47:14;4.63;;;2.72;;
48777;SDS011;34578;0.000;0.000;2024-02-28T00:52:15;6.50;;;3.55;;
48777;SDS011;34578;0.000;0.000;2024-02-28T00:57:15;3.83;;;2.73;;
48777;SDS011;34578;0.000;0.000;2024-02-28T01:02:16;3.53;;;3.08;;
48777;SDS011;34578;0.000;0.000;2024-02-28T01:07:16;4.90;;;3.87;;
48777;SDS011;34578;0.000;0.000;2024-02-28T01:12:16;4.43;;;3.40;;
48777;SDS011;34578;0.000;0.000;2024-02-28T01:17:17;5.03;;;3.15;;
48777;SDS011;34578;0.000;0.000;2024-02-28T01:22:17;5.43;;;3.53;;
48777;SDS011;34578;0.000;0.000;2024-02-28T01:27:18;4.03;;;3.33;;
48777;SDS011;34578;0.000;0.000;2024-02-28T01:32:18;4.20;;;3.60;;
48777;SDS011;34578;0.000;0.000;2024-02-28T01:37:18;5.37;;;3.40;;
48777;SDS011;34578;0.000;0.000;2024-02-28T01:42:19;5.63;;;3.30;;
48777;SDS011;34578;0.000;0.000;2024-02-28T01:47:19;4.43;;;3.40;;
48777;SDS011;34578;0.000;0.000;2024-02-28T01:52:20;6.20;;;3.65;;
48777;SDS011;34578;0.000;0.000;2024-02-28T01:57:21;5.18;;;3.78;;
48777;SDS011;34578;0.000;0.000;2024-02-28T02:02:22;3.95;;;3.50;;
48777;SDS011;34578;0.000;0.000;2024-02-28T02:07:22;7.77;;;3.90;;
48777;SDS011;34578;0.000;0.000;2024-02-28T02:12:23;5.82;;;3.65;;
48777;SDS011;34578;0.000;0.000;2024-02-28T02:17:26;4.53;;;4.05;;
48777;SDS011;34578;0.000;0.000;2024-02-28T02:22:27;4.38;;;3.97;;
48777;SDS011;34578;0.000;0.000;2024-02-28T02:27:31;8.05;;;4.15;;
48777;SDS011;34578;0.000;0.000;2024-02-28T02:32:31;5.53;;;4.33;;
48777;SDS011;34578;0.000;0.000;2024-02-28T02:37:32;5.27;;;4.20;;
48777;SDS011;34578;0.000;0.000;2024-02-28T02:42:32;4.72;;;3.85;;
48777;SDS011;34578;0.000;0.000;2024-02-28T02:47:33;4.43;;;4.03;;
48777;SDS011;34578;0.000;0.000;2024-02-28T02:52:33;4.83;;;4.37;;
48777;SDS011;34578;0.000;0.000;2024-02-28T02:57:33;5.37;;;4.40;;
48777;SDS011;34578;0.000;0.000;2024-02-28T03:02:34;4.57;;;3.80;;
48777;SDS011;34578;0.000;0.000;2024-02-28T03:07:34;8.18;;;3.97;;
48777;SDS011;34578;0.000;0.000;2024-02-28T03:12:35;4.20;;;3.80;;
48777;SDS011;34578;0.000;0.000;2024-02-28T03:17:36;5.20;;;3.42;;
48777;SDS011;34578;0.000;0.000;2024-02-28T03:22:36;5.07;;;3.50;;
48777;SDS011;34578;0.000;0.000;2024-02-28T03:27:36;5.00;;;3.97;;
48777;SDS011;34578;0.000;0.000;2024-02-28T03:32:37;5.60;;;3.80;;
48777;SDS011;34578;0.000;0.000;2024-02-28T03:37:37;4.70;;;4.20;;
48777;SDS011;34578;0.000;0.000;2024-02-28T03:42:38;5.63;;;3.73;;
48777;SDS011;34578;0.000;0.000;2024-02-28T03:47:39;4.22;;;3.60;;
48777;SDS011;34578;0.000;0.000;2024-02-28T03:52:39;3.60;;;3.10;;
48777;SDS011;34578;0.000;0.000;2024-02-28T03:57:40;3.57;;;3.20;;
48777;SDS011;34578;0.000;0.000;2024-02-28T04:02:40;4.90;;;3.37;;
48777;SDS011;34578;0.000;0.000;2024-02-28T04:07:40;5.50;;;3.47;;
48777;SDS011;34578;0.000;0.000;2024-02-28T04:12:42;3.87;;;3.30;;
48777;SDS011;34578;0.000;0.000;2024-02-28T04:17:43;3.65;;;3.35;;
48777;SDS011;34578;0.000;0.000;2024-02-28T04:22:44;3.93;;;3.47;;
48777;SDS011;34578;0.000;0.000;2024-02-28T04:27:44;3.70;;;3.20;;
48777;SDS011;34578;0.000;0.000;2024-02-28T04:32:46;6.70;;;3.20;;
48777;SDS011;34578;0.000;0.000;2024-02-28T04:37:46;4.23;;;3.37;;
48777;SDS011;34578;0.000;0.000;2024-02-28T04:42:47;7.70;;;4.32;;
48777;SDS011;34578;0.000;0.000;2024-02-28T04:47:48;6.05;;;3.50;;
48777;SDS011;34578;0.000;0.000;2024-02-28T04:52:48;6.03;;;3.30;;
48777;SDS011;34578;0.000;0.000;2024-02-28T04:57:48;5.57;;;3.27;;
48777;SDS011;34578;0.000;0.000;2024-02-28T05:02:49;5.23;;;3.00;;
48777;SDS011;34578;0.000;0.000;2024-02-28T05:07:49;4.97;;;3.37;;
48777;SDS011;34578;0.000;0.000;2024-02-28T05:12:49;5.83;;;3.27;;
48777;SDS011;34578;0.000;0.000;2024-02-28T05:17:50;3.90;;;3.30;;
48777;SDS011;34578;0.000;0.000;2024-02-28T05:22:52;5.05;;;3.55;;
48777;SDS011;34578;0.000;0.000;2024-02-28T05:27:52;4.68;;;3.40;;
48777;SDS011;34578;0.000;0.000;2024-02-28T05:32:53;7.47;;;3.53;;
48777;SDS011;34578;0.000;0.000;2024-02-28T05:37:53;4.50;;;3.40;;
48777;SDS011;34578;0.000;0.000;2024-02-28T05:42:54;9.73;;;5.32;;
48777;SDS011;34578;0.000;0.000;2024-02-28T05:47:55;5.83;;;4.00;;
48777;SDS011;34578;0.000;0.000;2024-02-28T05:52:55;11.20;;;10.00;;
48777;SDS011;34578;0.000;0.000;2024-02-28T05:57:55;12.90;;;6.73;;
48777;SDS011;34578;0.000;0.000;2024-02-28T06:02:56;5.53;;;4.23;;
48777;SDS011;34578;0.000;0.000;2024-02-28T06:07:56;10.73;;;4.70;;
48777;SDS011;34578;0.000;0.000;2024-02-28T06:12:59;12.50;;;6.25;;
48777;SDS011;34578;0.000;0.000;2024-02-28T06:18:00;10.13;;;6.22;;
48777;SDS011;34578;0.000;0.000;2024-02-28T06:23:01;6.30;;;4.45;;
48777;SDS011;34578;0.000;0.000;2024-02-28T06:28:01;20.37;;;14.27;;
48777;SDS011;34578;0.000;0.000;2024-02-28T06:33:02;19.00;;;10.82;;
48777;SDS011;34578;0.000;0.000;2024-02-28T06:38:04;13.77;;;6.85;;
48777;SDS011;34578;0.000;0.000;2024-02-28T06:43:04;11.73;;;6.83;;
48777;SDS011;34578;0.000;0.000;2024-02-28T06:48:06;9.67;;;4.93;;
48777;SDS011;34578;0.000;0.000;2024-02-28T06:53:07;8.73;;;5.05;;
48777;SDS011;34578;0.000;0.000;2024-02-28T06:58:08;7.07;;;4.32;;
48777;SDS011;34578;0.000;0.000;2024-02-28T07:03:08;8.40;;;4.07;;
48777;SDS011;34578;0.000;0.000;2024-02-28T07:08:09;8.07;;;4.20;;
48777;SDS011;34578;0.000;0.000;2024-02-28T07:13:11;7.13;;;3.88;;
48777;SDS011;34578;0.000;0.000;2024-02-28T07:18:11;5.07;;;3.40;;
48777;SDS011;34578;0.000;0.000;2024-02-28T07:23:12;6.70;;;3.47;;
48777;SDS011;34578;0.000;0.000;2024-02-28T07:28:12;4.22;;;3.50;;
48777;SDS011;34578;0.000;0.000;2024-02-28T07:33:12;7.90;;;3.38;;
48777;SDS011;34578;0.000;0.000;2024-02-28T07:38:13;6.27;;;3.60;;
48777;SDS011;34578;0.000;0.000;2024-02-28T07:43:13;6.43;;;3.70;;
48777;SDS011;34578;0.000;0.000;2024-02-28T07:48:13;4.70;;;3.63;;
48777;SDS011;34578;0.000;0.000;2024-02-28T07:53:14;4.93;;;3.20;;
48777;SDS011;34578;0.000;0.000;2024-02-28T07:58:15;3.83;;;3.05;;
48777;SDS011;34578;0.000;0.000;2024-02-28T08:03:16;6.03;;;3.97;;
48777;SDS011;34578;0.000;0.000;2024-02-28T08:08:17;7.00;;;3.40;;
48777;SDS011;34578;0.000;0.000;2024-02-28T08:13:17;6.17;;;3.73;;
48777;SDS011;34578;0.000;0.000;2024-02-28T08:18:17;4.50;;;3.20;;
48777;SDS011;34578;0.000;0.000;2024-02-28T08:23:20;3.95;;;3.00;;
48777;SDS011;34578;0.000;0.000;2024-02-28T08:28:20;3.83;;;3.30;;
48777;SDS011;34578;0.000;0.000;2024-02-28T08:33:21;3.20;;;2.90;;
48777;SDS011;34578;0.000;0.000;2024-02-28T08:38:21;3.43;;;3.13;;
48777;SDS011;34578;0.000;0.000;2024-02-28T08:43:21;3.67;;;3.20;;
48777;SDS011;34578;0.000;0.000;2024-02-28T08:48:22;4.37;;;3.97;;
48777;SDS011;34578;0.000;0.000;2024-02-28T08:53:23;4.43;;;3.17;;
48777;SDS011;34578;0.000;0.000;2024-02-28T08:58:23;3.23;;;2.90;;
48777;SDS011;34578;0.000;0.000;2024-02-28T09:03:23;3.47;;;2.77;;
48777;SDS011;34578;0.000;0.000;2024-02-28T09:08:24;3.37;;;3.07;;
48777;SDS011;34578;0.000;0.000;2024-02-28T09:13:24;5.33;;;3.47;;
48777;SDS011;34578;0.000;0.000;2024-02-28T09:18:25;4.18;;;3.13;;
48777;SDS011;34578;0.000;0.000;2024-02-28T09:23:25;3.43;;;2.87;;
48777;SDS011;34578;0.000;0.000;2024-02-28T09:28:25;4.00;;;3.33;;
48777;SDS011;34578;0.000;0.000;2024-02-28T09:33:26;2.80;;;2.60;;
48777;SDS011;34578;0.000;0.000;2024-02-28T09:38:26;2.97;;;2.53;;
48777;SDS011;34578;0.000;0.000;2024-02-28T09:43:35;3.87;;;3.03;;
48777;SDS011;34578;0.000;0.000;2024-02-28T09:48:40;3.25;;;2.88;;
48777;SDS011;34578;0.000;0.000;2024-02-28T09:53:41;3.42;;;3.10;;
48777;SDS011;34578;0.000;0.000;2024-02-28T09:58:41;3.07;;;2.77;;
48777;SDS011;34578;0.000;0.000;2024-02-28T10:03:43;3.05;;;2.75;;
48777;SDS011;34578;0.000;0.000;2024-02-28T10:08:44;3.40;;;2.97;;
48777;SDS011;34578;0.000;0.000;2024-02-28T10:13:47;3.67;;;2.38;;
48777;SDS011;34578;0.000;0.000;2024-02-28T10:18:50;3.50;;;3.03;;
48777;SDS011;34578;0.000;0.000;2024-02-28T10:23:50;2.83;;;2.63;;
48777;SDS011;34578;0.000;0.000;2024-02-28T10:28:51;3.00;;;2.70;;
48777;SDS011;34578;0.000;0.000;2024-02-28T10:33:51;2.95;;;2.65;;
48777;SDS011;34578;0.000;0.000;2024-02-28T10:38:52;3.00;;;2.60;;
48777;SDS011;34578;0.000;0.000;2024-02-28T10:43:53;3.20;;;2.60;;
48777;SDS011;34578;0.000;0.000;2024-02-28T10:48:54;3.33;;;3.03;;
48777;SDS011;34578;0.000;0.000;2024-02-28T10:54:11;3.25;;;3.05;;
48777;SDS011;34578;0.000;0.000;2024-02-28T10:59:12;3.80;;;2.65;;
48777;SDS011;34578;0.000;0.000;2024-02-28T11:04:13;2.90;;;2.67;;
48777;SDS011;34578;0.000;0.000;2024-02-28T11:09:22;2.85;;;2.63;;
48777;SDS011;34578;0.000;0.000;2024-02-28T11:14:24;2.85;;;2.42;;
48777;SDS011;34578;0.000;0.000;2024-02-28T11:19:28;4.13;;;3.00;;
48777;SDS011;34578;0.000;0.000;2024-02-28T11:24:33;3.08;;;2.72;;
48777;SDS011;34578;0.000;0.000;2024-02-28T11:29:34;3.13;;;2.70;;
48777;SDS011;34578;0.000;0.000;2024-02-28T11:34:34;2.23;;;2.03;;
48777;SDS011;34578;0.000;0.000;2024-02-28T11:39:35;2.87;;;2.40;;
48777;SDS011;34578;0.000;0.000;2024-02-28T11:44:36;3.55;;;2.80;;
48777;SDS011;34578;0.000;0.000;2024-02-28T11:49:37;3.95;;;2.72;;
48777;SDS011;34578;0.000;0.000;2024-02-28T11:54:37;2.80;;;2.30;;
48777;SDS011;34578;0.000;0.000;2024-02-28T11:59:38;3.40;;;3.10;;
48777;SDS011;34578;0.000;0.000;2024-02-28T12:04:41;2.97;;;2.67;;
48777;SDS011;34578;0.000;0.000;2024-02-28T12:09:42;5.22;;;2.90;;
48777;SDS011;34578;0.000;0.000;2024-02-28T12:14:45;3.00;;;2.38;;
48777;SDS011;34578;0.000;0.000;2024-02-28T12:19:46;3.15;;;2.88;;
48777;SDS011;34578;0.000;0.000;2024-02-28T12:24:46;8.67;;;3.60;;
48777;SDS011;34578;0.000;0.000;2024-02-28T12:29:47;5.55;;;4.03;;
48777;SDS011;34578;0.000;0.000;2024-02-28T12:34:47;13.13;;;4.73;;
48777;SDS011;34578;0.000;0.000;2024-02-28T12:39:48;11.73;;;5.50;;
48777;SDS011;34578;0.000;0.000;2024-02-28T12:44:48;8.63;;;6.03;;
48777;SDS011;34578;0.000;0.000;2024-02-28T12:49:48;9.83;;;5.20;;
48777;SDS011;34578;0.000;0.000;2024-02-28T12:54:49;14.90;;;5.40;;
48777;SDS011;34578;0.000;0.000;2024-02-28T12:59:49;10.37;;;5.67;;
48777;SDS011;34578;0.000;0.000;2024-02-28T13:04:49;12.37;;;5.20;;
48777;SDS011;34578;0.000;0.000;2024-02-28T13:09:50;13.73;;;5.33;;
48777;SDS011;34578;0.000;0.000;2024-02-28T13:14:50;8.93;;;4.53;;
48777;SDS011;34578;0.000;0.000;2024-02-28T13:19:51;10.67;;;4.87;;
48777;SDS011;34578;0.000;0.000;2024-02-28T13:24:51;8.63;;;4.60;;
48777;SDS011;34578;0.000;0.000;2024-02-28T13:29:52;12.80;;;4.83;;
48777;SDS011;34578;0.000;0.000;2024-02-28T13:34:52;12.17;;;5.70;;
48777;SDS011;34578;0.000;0.000;2024-02-28T13:39:52;7.13;;;4.97;;
48777;SDS011;34578;0.000;0.000;2024-02-28T13:44:53;24.67;;;6.17;;
48777;SDS011;34578;0.000;0.000;2024-02-28T13:49:53;18.57;;;6.80;;
48777;SDS011;34578;0.000;0.000;2024-02-28T13:54:53;10.93;;;4.87;;
48777;SDS011;34578;0.000;0.000;2024-02-28T13:59:54;13.38;;;4.82;;
48777;SDS011;34578;0.000;0.000;2024-02-28T14:04:54;18.87;;;5.33;;
48777;SDS011;34578;0.000;0.000;2024-02-28T14:09:55;18.17;;;4.87;;
48777;SDS011;34578;0.000;0.000;2024-02-28T14:14:57;18.77;;;4.90;;
48777;SDS011;34578;0.000;0.000;2024-02-28T14:19:57;14.93;;;5.37;;
48777;SDS011;34578;0.000;0.000;2024-02-28T14:24:59;10.50;;;4.50;;
48777;SDS011;34578;0.000;0.000;2024-02-28T14:29:59;10.57;;;4.18;;
48777;SDS011;34578;0.000;0.000;2024-02-28T14:35:00;6.83;;;3.67;;
48777;SDS011;34578;0.000;0.000;2024-02-28T14:40:00;8.87;;;3.73;;
48777;SDS011;34578;0.000;0.000;2024-02-28T14:45:10;7.38;;;3.92;;
48777;SDS011;34578;0.000;0.000;2024-02-28T14:50:11;8.50;;;4.20;;
48777;SDS011;34578;0.000;0.000;2024-02-28T14:55:12;12.50;;;4.20;;
48777;SDS011;34578;0.000;0.000;2024-02-28T15:00:12;6.13;;;3.60;;
48777;SDS011;34578;0.000;0.000;2024-02-28T15:05:15;8.30;;;4.68;;
48777;SDS011;34578;0.000;0.000;2024-02-28T15:10:16;9.40;;;3.67;;
48777;SDS011;34578;0.000;0.000;2024-02-28T15:15:16;8.20;;;4.43;;
48777;SDS011;34578;0.000;0.000;2024-02-28T15:20:17;9.57;;;3.83;;
48777;SDS011;34578;0.000;0.000;2024-02-28T15:25:17;6.57;;;4.30;;
48777;SDS011;34578;0.000;0.000;2024-02-28T15:30:17;6.90;;;4.33;;
48777;SDS011;34578;0.000;0.000;2024-02-28T15:35:18;9.33;;;6.70;;
48777;SDS011;34578;0.000;0.000;2024-02-28T15:40:22;8.75;;;5.40;;
48777;SDS011;34578;0.000;0.000;2024-02-28T15:45:23;8.13;;;5.45;;
48777;SDS011;34578;0.000;0.000;2024-02-28T15:50:24;12.95;;;7.93;;
48777;SDS011;34578;0.000;0.000;2024-02-28T15:55:24;13.43;;;5.63;;
48777;SDS011;34578;0.000;0.000;2024-02-28T16:00:24;12.87;;;5.17;;
48777;SDS011;34578;0.000;0.000;2024-02-28T16:05:25;9.63;;;4.40;;
48777;SDS011;34578;0.000;0.000;2024-02-28T16:10:28;9.80;;;6.68;;
48777;SDS011;34578;0.000;0.000;2024-02-28T16:15:28;12.60;;;5.03;;
48777;SDS011;34578;0.000;0.000;2024-02-28T16:20:28;7.27;;;5.07;;
48777;SDS011;34578;0.000;0.000;2024-02-28T16:25:29;12.57;;;5.57;;
48777;SDS011;34578;0.000;0.000;2024-02-28T16:30:29;10.65;;;5.35;;
48777;SDS011;34578;0.000;0.000;2024-02-28T16:35:29;7.90;;;4.33;;
48777;SDS011;34578;0.000;0.000;2024-02-28T16:40:30;6.20;;;3.97;;
48777;SDS011;34578;0.000;0.000;2024-02-28T16:45:31;7.47;;;4.53;;
48777;SDS011;34578;0.000;0.000;2024-02-28T16:50:31;18.87;;;7.27;;
48777;SDS011;34578;0.000;0.000;2024-02-28T16:55:32;11.10;;;5.45;;
48777;SDS011;34578;0.000;0.000;2024-02-28T17:00:32;6.90;;;4.70;;
48777;SDS011;34578;0.000;0.000;2024-02-28T17:05:33;8.68;;;5.63;;
48777;SDS011;34578;0.000;0.000;2024-02-28T17:10:38;6.28;;;3.75;;
48777;SDS011;34578;0.000;0.000;2024-02-28T17:15:39;6.27;;;4.10;;
48777;SDS011;34578;0.000;0.000;2024-02-28T17:20:39;6.80;;;4.38;;
48777;SDS011;34578;0.000;0.000;2024-02-28T17:25:42;9.23;;;4.57;;
48777;SDS011;34578;0.000;0.000;2024-02-28T17:30:42;11.90;;;4.47;;
48777;SDS011;34578;0.000;0.000;2024-02-28T17:35:43;9.13;;;4.10;;
48777;SDS011;34578;0.000;0.000;2024-02-28T17:40:44;7.90;;;3.80;;
48777;SDS011;34578;0.000;0.000;2024-02-28T17:45:44;10.88;;;4.70;;
48777;SDS011;34578;0.000;0.000;2024-02-28T17:50:45;7.22;;;4.13;;
48777;SDS011;34578;0.000;0.000;2024-02-28T17:55:46;5.10;;;3.75;;
48777;SDS011;34578;0.000;0.000;2024-02-28T18:00:46;6.75;;;4.07;;
48777;SDS011;34578;0.000;0.000;2024-02-28T18:05:47;9.05;;;4.05;;
48777;SDS011;34578;0.000;0.000;2024-02-28T18:10:47;5.00;;;3.53;;
48777;SDS011;34578;0.000;0.000;2024-02-28T18:15:48;4.47;;;3.30;;
48777;SDS011;34578;0.000;0.000;2024-02-28T18:20:49;5.57;;;3.22;;
48777;SDS011;34578;0.000;0.000;2024-02-28T18:45:19;5.67;;;3.57;;
48777;SDS011;34578;0.000;0.000;2024-02-28T18:50:20;8.13;;;3.97;;
48777;SDS011;34578;0.000;0.000;2024-02-28T18:55:23;9.30;;;4.15;;
48777;SDS011;34578;0.000;0.000;2024-02-28T19:00:26;4.28;;;3.70;;
48777;SDS011;34578;0.000;0.000;2024-02-28T19:05:27;6.90;;;3.67;;
48777;SDS011;34578;0.000;0.000;2024-02-28T19:10:28;6.40;;;3.70;;
48777;SDS011;34578;0.000;0.000;2024-02-28T19:15:28;12.07;;;4.00;;
48777;SDS011;34578;0.000;0.000;2024-02-28T19:20:28;11.33;;;4.53;;
48777;SDS011;34578;0.000;0.000;2024-02-28T19:25:29;6.40;;;3.23;;
48777;SDS011;34578;0.000;0.000;2024-02-28T19:30:30;8.52;;;3.58;;
48777;SDS011;34578;0.000;0.000;2024-02-28T19:35:30;6.00;;;3.63;;
48777;SDS011;34578;0.000;0.000;2024-02-28T19:40:30;5.40;;;3.63;;
48777;SDS011;34578;0.000;0.000;2024-02-28T19:45:33;5.78;;;3.03;;
48777;SDS011;34578;0.000;0.000;2024-02-28T19:50:34;4.47;;;3.42;;
48777;SDS011;34578;0.000;0.000;2024-02-28T19:55:36;6.40;;;3.88;;
48777;SDS011;34578;0.000;0.000;2024-02-28T20:00:37;4.67;;;3.53;;
48777;SDS011;34578;0.000;0.000;2024-02-28T20:05:39;6.60;;;3.67;;
48777;SDS011;34578;0.000;0.000;2024-02-28T20:10:40;5.33;;;3.43;;
48777;SDS011;34578;0.000;0.000;2024-02-28T20:15:40;6.80;;;3.30;;
48777;SDS011;34578;0.000;0.000;2024-02-28T20:20:41;6.55;;;3.03;;
48777;SDS011;34578;0.000;0.000;2024-02-28T20:25:42;7.55;;;4.07;;
48777;SDS011;34578;0.000;0.000;2024-02-28T20:30:43;10.13;;;4.03;;
48777;SDS011;34578;0.000;0.000;2024-02-28T20:35:43;6.20;;;3.03;;
48777;SDS011;34578;0.000;0.000;2024-02-28T20:40:43;6.97;;;3.67;;
48777;SDS011;34578;0.000;0.000;2024-02-28T20:45:44;4.80;;;3.13;;
48777;SDS011;34578;0.000;0.000;2024-02-28T20:50:44;6.33;;;3.50;;
48777;SDS011;34578;0.000;0.000;2024-02-28T20:55:46;8.38;;;3.88;;
48777;SDS011;34578;0.000;0.000;2024-02-28T21:00:47;5.70;;;3.90;;
48777;SDS011;34578;0.000;0.000;2024-02-28T21:05:47;5.33;;;4.20;;
48777;SDS011;34578;0.000;0.000;2024-02-28T21:10:47;5.60;;;3.97;;
48777;SDS011;34578;0.000;0.000;2024-02-28T21:15:48;7.23;;;4.97;;
48777;SDS011;34578;0.000;0.000;2024-02-28T21:20:48;8.33;;;4.13;;
48777;SDS011;34578;0.000;0.000;2024-02-28T21:25:48;9.83;;;4.37;;
48777;SDS011;34578;0.000;0.000;2024-02-28T21:30:49;7.23;;;5.67;;
48777;SDS011;34578;0.000;0.000;2024-02-28T21:35:49;5.15;;;4.57;;
48777;SDS011;34578;0.000;0.000;2024-02-28T21:40:49;5.63;;;4.37;;
48777;SDS011;34578;0.000;0.000;2024-02-28T21:45:50;6.70;;;4.13;;
48777;SDS011;34578;0.000;0.000;2024-02-28T21:50:50;7.60;;;4.40;;
48777;SDS011;34578;0.000;0.000;2024-02-28T21:55:51;5.47;;;4.23;;
48777;SDS011;34578;0.000;0.000;2024-02-28T22:00:51;5.07;;;4.57;;
48777;SDS011;34578;0.000;0.000;2024-02-28T22:05:54;5.40;;;4.20;;
48777;SDS011;34578;0.000;0.000;2024-02-28T22:10:54;7.67;;;4.47;;
48777;SDS011;34578;0.000;0.000;2024-02-28T22:15:55;5.97;;;3.90;;
48777;SDS011;34578;0.000;0.000;2024-02-28T22:20:55;4.40;;;3.90;;
48777;SDS011;34578;0.000;0.000;2024-02-28T22:25:56;4.47;;;4.03;;
48777;SDS011;34578;0.000;0.000;2024-02-28T22:30:57;7.18;;;4.00;;
48777;SDS011;34578;0.000;0.000;2024-02-28T22:35:57;4.37;;;3.53;;
48777;SDS011;34578;0.000;0.000;2024-02-28T22:40:58;6.80;;;4.27;;
48777;SDS011;34578;0.000;0.000;2024-02-28T22:45:58;12.77;;;4.43;;
48777;SDS011;34578;0.000;0.000;2024-02-28T22:50:58;5.03;;;4.30;;
48777;SDS011;34578;0.000;0.000;2024-02-28T22:55:59;5.70;;;4.57;;
48777;SDS011;34578;0.000;0.000;2024-02-28T23:00:59;5.10;;;4.00;;
48777;SDS011;34578;0.000;0.000;2024-02-28T23:05:59;9.45;;;4.97;;
48777;SDS011;34578;0.000;0.000;2024-02-28T23:11:00;5.17;;;3.83;;
48777;SDS011;34578;0.000;0.000;2024-02-28T23:16:00;5.40;;;4.32;;
48777;SDS011;34578;0.000;0.000;2024-02-28T23:21:01;5.07;;;3.90;;
48777;SDS011;34578;0.000;0.000;2024-02-28T23:26:02;5.13;;;4.00;;
48777;SDS011;34578;0.000;0.000;2024-02-28T23:31:03;4.35;;;3.83;;
48777;SDS011;34578;0.000;0.000;2024-02-28T23:36:03;8.43;;;3.85;;
48777;SDS011;34578;0.000;0.000;2024-02-28T23:41:04;4.35;;;3.92;;
48777;SDS011;34578;0.000;0.000;2024-02-28T23:46:07;5.10;;;4.60;;
48777;SDS011;34578;0.000;0.000;2024-02-28T23:51:07;5.30;;;3.97;;
48777;SDS011;34578;0.000;0.000;2024-02-28T23:56:08;7.03;;;3.87;;
